Time;durP1;ratioP1;P1;durP2;ratioP2;P2;SDS_P1;SDS_P2;PMS_P1;PMS_P2;Temp;Humidity;BMP_temperature;BMP_pressure;BME280_temperature;BME280_humidity;BME280_pressure;Samples;Min_cycle;Max_cycle;Signal;HPM_P1;HPM_P2
2021/11/18 00:01:49;;;;;;;3.20;0.95;;;6.10;99.90;;;;;;5095704;28;20598;-80
2021/11/18 00:04:16;;;;;;;8.40;4.05;;;6.10;99.90;;;;;;5095480;28;20177;-80
2021/11/18 00:06:44;;;;;;;0.63;0.63;;;6.20;99.90;;;;;;5096115;28;20208;-78
2021/11/18 00:09:11;;;;;;;2.97;2.50;;;6.10;99.90;;;;;;5095380;28;20228;-78
2021/11/18 00:11:39;;;;;;;3.05;1.98;;;6.10;99.90;;;;;;5095739;28;20229;-78
2021/11/18 00:14:07;;;;;;;0.50;0.40;;;6.10;99.90;;;;;;5095835;28;20575;-78
2021/11/18 00:16:35;;;;;;;4.25;3.78;;;6.10;99.90;;;;;;5096096;28;20197;-78
2021/11/18 00:19:04;;;;;;;3.35;3.05;;;6.00;99.90;;;;;;5095612;28;20213;-78
2021/11/18 00:21:33;;;;;;;4.75;2.83;;;6.00;99.90;;;;;;5095520;28;20214;-78
2021/11/18 00:24:00;;;;;;;2.55;2.10;;;6.00;99.90;;;;;;5095954;28;20203;-79
2021/11/18 00:26:29;;;;;;;2.60;1.98;;;6.00;99.90;;;;;;5096013;28;20201;-78
2021/11/18 00:28:57;;;;;;;27.08;5.90;;;6.00;99.90;;;;;;5095796;28;20193;-79
2021/11/18 00:31:27;;;;;;;7.40;3.50;;;6.00;99.90;;;;;;5095105;28;20216;-79
2021/11/18 00:33:54;;;;;;;3.72;1.83;;;6.00;99.90;;;;;;5095529;28;20197;-78
2021/11/18 00:36:21;;;;;;;6.97;4.38;;;6.00;99.90;;;;;;5095357;28;20193;-79
2021/11/18 00:38:49;;;;;;;4.38;3.70;;;6.00;99.90;;;;;;5095174;28;20604;-79
2021/11/18 00:41:17;;;;;;;3.42;1.77;;;6.00;99.90;;;;;;5095105;28;20197;-78
2021/11/18 00:43:45;;;;;;;5.28;3.40;;;6.00;99.90;;;;;;5095429;28;20205;-79
2021/11/18 00:46:14;;;;;;;5.22;3.95;;;6.00;99.90;;;;;;5095197;28;20200;-78
2021/11/18 00:48:42;;;;;;;5.85;4.85;;;5.90;99.90;;;;;;5095438;28;20257;-79
2021/11/18 00:51:11;;;;;;;0.80;0.80;;;5.90;99.90;;;;;;5094498;28;20193;-78
2021/11/18 00:53:40;;;;;;;2.63;2.40;;;5.90;99.90;;;;;;5095330;28;20564;-79
2021/11/18 00:56:07;;;;;;;8.63;5.47;;;5.90;99.90;;;;;;5094683;28;20204;-78
2021/11/18 00:58:34;;;;;;;6.78;5.28;;;5.90;99.90;;;;;;5094974;28;20594;-78
2021/11/18 01:01:02;;;;;;;6.18;3.78;;;5.90;99.90;;;;;;5094500;28;20194;-78
2021/11/18 01:03:31;;;;;;;4.95;4.60;;;5.90;99.90;;;;;;5095052;28;20201;-78
2021/11/18 01:05:58;;;;;;;8.93;6.22;;;5.90;99.90;;;;;;5095560;28;20197;-79
2021/11/18 01:08:25;;;;;;;4.53;1.52;;;5.80;99.90;;;;;;5094657;28;20193;-78
2021/11/18 01:10:54;;;;;;;4.72;3.22;;;5.90;99.90;;;;;;5094346;28;20216;-81
2021/11/18 01:13:22;;;;;;;16.08;8.43;;;5.80;99.90;;;;;;5094678;28;20222;-78
2021/11/18 01:15:49;;;;;;;0.60;0.60;;;5.80;99.90;;;;;;5094928;28;20220;-79
2021/11/18 01:18:16;;;;;;;2.47;1.70;;;5.80;99.90;;;;;;5094522;28;20587;-78
2021/11/18 01:20:45;;;;;;;15.00;5.25;;;5.80;99.90;;;;;;5094305;28;20558;-78
2021/11/18 01:23:15;;;;;;;4.95;3.30;;;5.80;99.90;;;;;;5094558;28;20224;-78
2021/11/18 01:25:41;;;;;;;4.55;4.18;;;5.80;99.90;;;;;;5094704;28;20290;-79
2021/11/18 01:28:10;;;;;;;1.67;1.58;;;5.80;99.90;;;;;;5094656;28;20185;-79
2021/11/18 01:30:38;;;;;;;3.97;3.70;;;5.80;99.90;;;;;;5094123;28;20206;-79
2021/11/18 01:33:08;;;;;;;1.20;1.20;;;5.80;99.90;;;;;;5094445;28;20216;-78
2021/11/18 01:35:36;;;;;;;5.50;4.25;;;5.70;99.90;;;;;;5093647;28;20201;-78
2021/11/18 01:40:43;;;;;;;17.08;4.97;;;5.80;99.90;;;;;;5538786;22;20740;-77
2021/11/18 01:43:10;;;;;;;2.95;1.98;;;5.70;99.90;;;;;;5067435;28;20565;-79
2021/11/18 01:45:39;;;;;;;3.78;3.67;;;5.70;99.90;;;;;;5073461;28;20249;-79
2021/11/18 01:48:06;;;;;;;2.15;2.05;;;5.70;99.90;;;;;;5073611;28;20193;-79
2021/11/18 01:50:35;;;;;;;8.15;4.40;;;5.70;99.90;;;;;;5073579;28;20756;-79
2021/11/18 01:53:05;;;;;;;1.75;1.65;;;5.80;99.90;;;;;;5073548;28;20194;-79
2021/11/18 01:55:33;;;;;;;2.25;2.05;;;5.80;99.90;;;;;;5074649;28;20228;-80
2021/11/18 01:58:01;;;;;;;9.30;6.63;;;5.80;99.90;;;;;;5073798;28;20233;-80
2021/11/18 02:00:31;;;;;;;4.50;2.20;;;5.70;99.90;;;;;;5073501;28;20578;-79
2021/11/18 02:02:58;;;;;;;1.25;1.15;;;5.80;99.90;;;;;;5073627;28;20216;-79
2021/11/18 02:05:29;;;;;;;9.88;3.75;;;5.70;99.90;;;;;;5073957;28;20205;-80
2021/11/18 02:07:57;;;;;;;9.07;3.97;;;5.70;99.90;;;;;;5073812;28;20190;-78
2021/11/18 02:10:29;;;;;;;2.65;2.47;;;5.70;99.90;;;;;;5073006;28;20214;-79
2021/11/18 02:12:57;;;;;;;5.70;3.88;;;5.80;99.90;;;;;;5073745;28;20216;-79
2021/11/18 02:15:29;;;;;;;5.40;3.17;;;5.70;99.90;;;;;;5073507;28;20205;-79
2021/11/18 02:17:57;;;;;;;0.88;0.88;;;5.70;99.90;;;;;;5072968;28;20263;-80
2021/11/18 02:20:29;;;;;;;10.73;3.83;;;5.70;99.90;;;;;;5073253;28;20256;-79
2021/11/18 02:22:56;;;;;;;3.47;3.22;;;5.70;99.90;;;;;;5073858;28;20183;-80
2021/11/18 02:25:29;;;;;;;5.53;2.13;;;5.70;99.90;;;;;;5073461;28;20244;-79
2021/11/18 02:27:56;;;;;;;9.52;3.95;;;5.70;99.90;;;;;;5073560;28;20200;-78
2021/11/18 02:30:26;;;;;;;1.95;1.42;;;5.70;99.90;;;;;;5073409;28;20213;-79
2021/11/18 02:32:53;;;;;;;2.45;2.35;;;5.70;99.90;;;;;;5073530;28;20248;-79
2021/11/18 02:35:22;;;;;;;2.63;1.17;;;5.70;99.90;;;;;;5073428;28;20193;-79
2021/11/18 02:37:52;;;;;;;0.98;0.98;;;5.70;99.90;;;;;;5072760;28;20211;-78
2021/11/18 02:40:20;;;;;;;14.65;5.78;;;5.70;99.90;;;;;;5072559;28;20217;-79
2021/11/18 02:42:47;;;;;;;1.90;1.80;;;5.60;99.90;;;;;;5073199;28;20215;-79
2021/11/18 02:45:17;;;;;;;5.95;4.03;;;5.70;99.90;;;;;;5073411;28;20655;-79
2021/11/18 02:47:44;;;;;;;3.53;2.75;;;5.60;99.90;;;;;;5073438;28;20190;-79
2021/11/18 02:50:14;;;;;;;12.52;4.45;;;5.60;99.90;;;;;;5072701;28;20641;-77
2021/11/18 02:52:41;;;;;;;0.95;0.93;;;5.60;99.90;;;;;;5072830;28;20183;-78
2021/11/18 02:55:13;;;;;;;5.22;4.82;;;5.60;99.90;;;;;;5073418;28;20562;-79
2021/11/18 02:57:40;;;;;;;5.03;4.43;;;5.60;99.90;;;;;;5077178;28;20557;-79
2021/11/18 03:00:11;;;;;;;1.63;1.42;;;5.60;99.90;;;;;;5076263;28;20221;-79
2021/11/18 03:02:38;;;;;;;8.48;4.93;;;5.60;99.90;;;;;;5077369;28;20189;-79
2021/11/18 03:05:06;;;;;;;3.40;3.20;;;5.60;99.90;;;;;;5076714;28;20198;-79
2021/11/18 03:07:33;;;;;;;5.93;5.60;;;5.60;99.90;;;;;;5075799;28;20194;-79
2021/11/18 03:10:00;;;;;;;9.93;9.00;;;5.60;99.90;;;;;;5075937;28;20220;-79
2021/11/18 03:12:28;;;;;;;18.65;7.65;;;5.60;99.90;;;;;;5077166;28;20193;-80
2021/11/18 03:14:55;;;;;;;4.38;4.07;;;5.60;99.90;;;;;;5075811;28;20206;-79
2021/11/18 03:17:21;;;;;;;14.35;2.47;;;5.60;99.90;;;;;;5076513;28;20189;-76
2021/11/18 03:19:48;;;;;;;4.07;2.17;;;5.60;99.90;;;;;;5077389;28;20222;-79
2021/11/18 03:22:15;;;;;;;3.70;1.95;;;5.60;99.90;;;;;;5079111;28;20202;-77
2021/11/18 03:24:41;;;;;;;5.10;4.22;;;5.60;99.90;;;;;;5079048;28;20205;-80
2021/11/18 03:27:09;;;;;;;4.65;2.47;;;5.60;99.90;;;;;;5077877;28;20221;-79
2021/11/18 03:29:37;;;;;;;2.28;2.08;;;5.60;99.90;;;;;;5077736;28;20225;-78
2021/11/18 03:32:05;;;;;;;4.65;3.70;;;5.60;99.90;;;;;;5077093;28;20205;-80
2021/11/18 03:34:35;;;;;;;6.53;3.42;;;5.60;99.90;;;;;;5077788;28;20201;-80
2021/11/18 03:37:03;;;;;;;2.55;2.45;;;5.60;99.90;;;;;;5078012;28;20182;-79
2021/11/18 03:39:30;;;;;;;61.45;8.65;;;5.50;99.90;;;;;;5076557;28;20229;-80
2021/11/18 03:42:02;;;;;;;1.95;1.50;;;5.50;99.90;;;;;;5076031;28;20194;-80
2021/11/18 03:44:28;;;;;;;7.43;4.88;;;5.50;99.90;;;;;;5075506;28;20255;-78
2021/11/18 03:47:00;;;;;;;10.73;4.22;;;5.50;99.90;;;;;;5075288;28;20198;-80
2021/11/18 03:49:27;;;;;;;13.23;2.08;;;5.50;99.90;;;;;;5075101;28;20178;-79
2021/11/18 03:51:57;;;;;;;4.22;3.92;;;5.50;99.90;;;;;;5075466;28;20201;-79
2021/11/18 03:54:26;;;;;;;3.05;2.92;;;5.50;99.90;;;;;;5075317;28;20198;-79
2021/11/18 03:56:53;;;;;;;17.13;4.00;;;5.50;99.90;;;;;;5075849;28;20197;-79
2021/11/18 03:59:23;;;;;;;9.82;4.35;;;5.50;99.90;;;;;;5075838;28;20213;-80
2021/11/18 04:01:51;;;;;;;6.15;2.72;;;5.50;99.90;;;;;;5076421;28;20201;-79
2021/11/18 04:04:23;;;;;;;5.10;4.65;;;5.50;99.90;;;;;;5076482;28;20190;-78
2021/11/18 04:06:50;;;;;;;1.33;1.23;;;5.50;99.90;;;;;;5074985;28;20186;-79
2021/11/18 04:09:18;;;;;;;5.40;4.93;;;5.50;99.90;;;;;;5075457;28;20213;-79
2021/11/18 04:11:48;;;;;;;13.55;2.35;;;5.50;99.90;;;;;;5075133;28;20349;-80
2021/11/18 04:14:16;;;;;;;1.73;1.63;;;5.50;99.90;;;;;;5075890;28;20205;-79
2021/11/18 04:16:44;;;;;;;2.72;2.53;;;5.50;99.90;;;;;;5075713;28;20547;-79
2021/11/18 04:19:11;;;;;;;2.35;1.50;;;5.50;99.90;;;;;;5075473;28;20214;-78
2021/11/18 04:21:42;;;;;;;2.88;2.78;;;5.50;99.90;;;;;;5076321;28;20198;-80
2021/11/18 04:24:11;;;;;;;16.63;2.08;;;5.50;99.90;;;;;;5076016;28;20190;-80
2021/11/18 04:26:39;;;;;;;1.15;0.85;;;5.50;99.90;;;;;;5074479;28;20201;-80
2021/11/18 04:29:06;;;;;;;0.82;0.82;;;5.50;99.90;;;;;;5074259;28;20205;-79
2021/11/18 04:31:33;;;;;;;2.55;2.35;;;5.60;99.90;;;;;;5074711;28;20229;-79
2021/11/18 04:34:00;;;;;;;4.93;3.20;;;5.60;99.90;;;;;;5074925;28;20189;-80
2021/11/18 04:36:29;;;;;;;2.13;2.10;;;5.60;99.90;;;;;;5074222;28;20198;-79
2021/11/18 04:38:57;;;;;;;17.05;3.33;;;5.60;99.90;;;;;;5073956;28;20276;-79
2021/11/18 04:41:27;;;;;;;1.60;1.50;;;5.60;99.90;;;;;;5074323;28;20218;-79
2021/11/18 04:43:54;;;;;;;95.97;6.65;;;5.70;99.90;;;;;;5074052;28;20198;-80
2021/11/18 04:46:21;;;;;;;19.77;8.25;;;5.60;99.90;;;;;;5074619;28;20198;-78
2021/11/18 04:48:48;;;;;;;5.90;5.25;;;5.60;99.90;;;;;;5073917;28;20203;-79
2021/11/18 04:51:17;;;;;;;2.08;1.73;;;5.60;99.90;;;;;;5074073;28;20245;-80
2021/11/18 04:53:44;;;;;;;6.68;4.85;;;5.60;99.90;;;;;;5073999;28;20930;-79
2021/11/18 04:56:12;;;;;;;10.23;6.10;;;5.60;99.90;;;;;;5074760;28;20209;-79
2021/11/18 04:58:40;;;;;;;11.48;5.40;;;5.60;99.90;;;;;;5074256;28;20214;-81
2021/11/18 05:01:08;;;;;;;6.63;4.63;;;5.60;99.90;;;;;;5074520;28;20241;-80
2021/11/18 05:03:36;;;;;;;2.90;2.70;;;5.60;99.90;;;;;;5074327;28;20198;-79
2021/11/18 05:06:03;;;;;;;4.75;1.73;;;5.60;99.90;;;;;;5074186;28;20574;-79
2021/11/18 05:08:30;;;;;;;4.88;4.05;;;5.70;99.90;;;;;;5073660;28;20209;-80
2021/11/18 05:10:57;;;;;;;14.35;5.28;;;5.70;99.90;;;;;;5073931;28;20210;-79
2021/11/18 05:13:28;;;;;;;5.72;4.25;;;5.70;99.90;;;;;;5073661;28;20248;-78
2021/11/18 05:15:56;;;;;;;35.50;3.78;;;5.70;99.90;;;;;;5073328;28;20182;-79
2021/11/18 05:18:24;;;;;;;6.30;4.80;;;5.70;99.90;;;;;;5072626;28;20693;-78
2021/11/18 05:20:51;;;;;;;13.65;3.70;;;5.70;99.90;;;;;;5073185;28;20281;-78
2021/11/18 05:23:18;;;;;;;4.20;3.83;;;5.70;99.90;;;;;;5077364;28;20201;-79
2021/11/18 05:25:45;;;;;;;3.45;2.70;;;5.70;99.90;;;;;;5073263;28;20263;-80
2021/11/18 05:28:12;;;;;;;2.92;2.70;;;5.70;99.90;;;;;;5073268;28;20198;-78
2021/11/18 05:30:41;;;;;;;5.22;3.88;;;5.70;99.90;;;;;;5072879;28;20585;-79
2021/11/18 05:33:11;;;;;;;23.13;4.72;;;5.70;99.90;;;;;;5073503;28;20194;-79
2021/11/18 05:35:38;;;;;;;4.97;4.57;;;5.70;99.90;;;;;;5073838;28;20198;-78
2021/11/18 05:38:06;;;;;;;2.85;2.65;;;5.70;99.90;;;;;;5073385;28;20205;-80
2021/11/18 05:40:34;;;;;;;4.10;3.72;;;5.80;99.90;;;;;;5073496;28;20276;-78
2021/11/18 05:43:01;;;;;;;9.23;4.85;;;5.70;99.90;;;;;;5073173;28;20209;-79
2021/11/18 05:45:30;;;;;;;11.23;6.97;;;5.80;99.90;;;;;;5073589;28;20198;-79
2021/11/18 05:47:59;;;;;;;4.70;2.08;;;5.80;99.90;;;;;;5073685;28;20201;-79
2021/11/18 05:50:26;;;;;;;12.48;7.07;;;5.70;99.90;;;;;;5073813;28;20627;-79
2021/11/18 05:52:53;;;;;;;11.88;4.18;;;5.70;99.90;;;;;;5074094;28;20201;-79
2021/11/18 05:55:23;;;;;;;1.60;1.50;;;5.80;99.90;;;;;;5073620;28;20205;-78
2021/11/18 05:57:50;;;;;;;8.98;5.65;;;5.80;99.90;;;;;;5074367;28;20194;-79
2021/11/18 06:00:19;;;;;;;52.42;7.85;;;5.80;99.90;;;;;;5073216;28;20222;-79
2021/11/18 06:02:46;;;;;;;2.20;2.10;;;5.80;99.90;;;;;;5073235;28;20210;-79
2021/11/18 06:05:16;;;;;;;1.70;1.67;;;5.80;99.90;;;;;;5073627;28;20194;-80
2021/11/18 06:07:43;;;;;;;3.03;2.83;;;5.80;99.90;;;;;;5072946;28;20201;-79
2021/11/18 06:10:12;;;;;;;38.05;4.70;;;5.90;99.90;;;;;;5073431;28;20245;-79
2021/11/18 06:12:39;;;;;;;6.93;3.30;;;5.90;99.90;;;;;;5074518;28;20194;-79
2021/11/18 06:15:09;;;;;;;10.40;6.93;;;5.90;99.90;;;;;;5074321;28;20201;-80
2021/11/18 06:17:36;;;;;;;3.15;2.95;;;5.90;99.90;;;;;;5073452;28;20815;-79
2021/11/18 06:20:03;;;;;;;13.05;8.82;;;5.90;99.90;;;;;;5073154;28;20217;-80
2021/11/18 06:22:31;;;;;;;9.32;6.20;;;6.00;99.90;;;;;;5074233;28;20197;-80
2021/11/18 06:24:59;;;;;;;7.82;5.18;;;5.90;99.90;;;;;;5073791;28;20562;-80
2021/11/18 06:27:26;;;;;;;29.35;5.45;;;6.00;99.90;;;;;;5074052;28;20201;-79
2021/11/18 06:29:53;;;;;;;4.30;2.20;;;6.00;99.90;;;;;;5075267;28;20217;-79
2021/11/18 06:32:20;;;;;;;12.05;7.50;;;6.00;99.90;;;;;;5078213;28;20236;-78
2021/11/18 06:34:47;;;;;;;4.65;4.35;;;6.10;99.90;;;;;;5079303;28;20510;-80
2021/11/18 06:37:14;;;;;;;12.95;4.40;;;6.10;99.90;;;;;;5078380;28;20197;-79
2021/11/18 06:39:42;;;;;;;8.75;6.50;;;6.10;99.90;;;;;;5077691;28;20229;-80
2021/11/18 06:42:12;;;;;;;3.58;3.20;;;6.10;99.90;;;;;;5078971;28;20205;-80
2021/11/18 06:44:40;;;;;;;14.13;4.03;;;6.00;99.90;;;;;;5078743;28;20206;-79
2021/11/18 06:47:07;;;;;;;10.32;6.10;;;6.10;99.90;;;;;;5078684;28;20251;-79
2021/11/18 06:49:34;;;;;;;6.80;3.78;;;6.10;99.90;;;;;;5077840;28;20246;-79
2021/11/18 06:52:01;;;;;;;2.90;2.05;;;6.10;99.90;;;;;;5078436;28;20201;-76
2021/11/18 06:54:29;;;;;;;9.20;2.88;;;6.10;99.90;;;;;;5076614;28;20190;-79
2021/11/18 06:56:57;;;;;;;2.08;1.90;;;6.10;99.90;;;;;;5076465;28;20598;-78
2021/11/18 06:59:23;;;;;;;5.63;5.18;;;6.20;99.90;;;;;;5075918;28;20213;-78
2021/11/18 07:01:50;;;;;;;1.02;0.95;;;6.10;99.90;;;;;;5076206;28;20201;-78
2021/11/18 07:04:18;;;;;;;12.75;10.23;;;6.20;99.90;;;;;;5076817;28;20194;-78
2021/11/18 07:06:45;;;;;;;0.93;0.93;;;6.10;99.90;;;;;;5077049;28;20605;-78
2021/11/18 07:09:12;;;;;;;5.28;2.80;;;6.10;99.90;;;;;;5075726;28;20566;-78
2021/11/18 07:11:39;;;;;;;2.10;1.17;;;6.20;99.90;;;;;;5076339;28;20202;-78
2021/11/18 07:14:08;;;;;;;2.58;2.38;;;6.20;99.90;;;;;;5076012;28;20251;-78
2021/11/18 07:16:35;;;;;;;11.93;7.32;;;6.20;99.90;;;;;;5076492;28;20194;-79
2021/11/18 07:19:05;;;;;;;27.30;2.42;;;6.20;99.90;;;;;;5075801;28;20202;-78
2021/11/18 07:21:33;;;;;;;2.63;2.42;;;6.20;99.90;;;;;;5076155;28;20221;-78
2021/11/18 07:24:02;;;;;;;5.88;4.65;;;6.20;99.90;;;;;;5075684;28;20190;-78
2021/11/18 07:26:31;;;;;;;4.55;3.95;;;6.30;99.90;;;;;;5076821;28;20612;-78
2021/11/18 07:28:58;;;;;;;2.10;1.48;;;6.30;99.90;;;;;;5075515;28;20238;-77
2021/11/18 07:31:26;;;;;;;0.65;0.65;;;6.30;99.90;;;;;;5075943;28;20563;-78
2021/11/18 07:33:53;;;;;;;5.25;4.05;;;6.30;99.90;;;;;;5076250;28;20190;-79
2021/11/18 07:36:21;;;;;;;10.40;5.07;;;6.40;99.90;;;;;;5075478;28;20225;-79
2021/11/18 07:38:47;;;;;;;1.73;1.63;;;6.40;99.90;;;;;;5074965;28;20194;-77
2021/11/18 07:41:14;;;;;;;7.20;4.32;;;6.40;99.90;;;;;;5074636;28;20229;-77
2021/11/18 07:43:44;;;;;;;3.83;2.67;;;6.40;99.90;;;;;;5075287;28;20206;-78
2021/11/18 07:46:13;;;;;;;18.50;4.80;;;6.40;99.90;;;;;;5075046;28;20194;-78
2021/11/18 07:48:41;;;;;;;4.68;4.15;;;6.40;99.90;;;;;;5074691;28;20244;-78
2021/11/18 07:51:09;;;;;;;4.40;3.90;;;6.40;99.90;;;;;;5075164;28;20213;-79
2021/11/18 07:53:35;;;;;;;5.93;3.97;;;6.50;99.90;;;;;;5075010;28;20197;-78
2021/11/18 07:56:03;;;;;;;1.48;1.38;;;6.50;99.90;;;;;;5076573;28;20194;-79
2021/11/18 07:58:30;;;;;;;63.60;5.55;;;6.50;99.90;;;;;;5075372;28;20671;-78
2021/11/18 08:00:57;;;;;;;0.50;0.40;;;6.50;99.90;;;;;;5075994;28;20222;-79
2021/11/18 08:03:25;;;;;;;2.45;1.75;;;6.50;99.90;;;;;;5075250;28;20190;-78
2021/11/18 08:05:53;;;;;;;8.82;3.95;;;6.50;99.90;;;;;;5075221;28;20278;-79
2021/11/18 08:08:20;;;;;;;16.58;7.75;;;6.60;99.90;;;;;;5074113;28;20555;-78
2021/11/18 08:10:47;;;;;;;6.30;1.92;;;6.60;99.90;;;;;;5074585;28;20214;-78
2021/11/18 08:13:13;;;;;;;9.85;6.07;;;6.60;99.90;;;;;;5075246;28;20264;-78
2021/11/18 08:15:40;;;;;;;1.10;1.10;;;6.60;99.90;;;;;;5074584;28;20198;-78
2021/11/18 08:18:07;;;;;;;7.03;4.13;;;6.70;99.90;;;;;;5074840;28;20202;-78
2021/11/18 08:20:34;;;;;;;31.30;4.47;;;6.70;99.90;;;;;;5073946;28;20838;-78
2021/11/18 08:23:03;;;;;;;2.53;1.52;;;6.80;99.90;;;;;;5074883;28;20195;-78
2021/11/18 08:25:33;;;;;;;2.35;2.15;;;6.90;99.90;;;;;;5074711;28;20214;-78
2021/11/18 08:28:00;;;;;;;1.88;1.60;;;6.90;99.90;;;;;;5074691;28;20197;-78
2021/11/18 08:30:29;;;;;;;0.70;0.70;;;7.00;99.90;;;;;;5073627;28;21006;-78
2021/11/18 08:33:00;;;;;;;8.55;2.88;;;7.00;99.90;;;;;;5075873;28;20403;-79
2021/11/18 08:35:31;;;;;;;12.60;4.18;;;7.10;99.90;;;;;;5074651;28;20199;-78
2021/11/18 08:37:59;;;;;;;11.55;5.05;;;7.10;99.90;;;;;;5074366;28;20204;-78
2021/11/18 08:40:27;;;;;;;7.07;5.18;;;7.10;99.90;;;;;;5074018;28;20219;-79
2021/11/18 08:42:54;;;;;;;2.13;2.03;;;7.10;99.90;;;;;;5074673;28;20202;-79
2021/11/18 08:45:21;;;;;;;1.40;1.25;;;7.10;99.90;;;;;;5074409;28;20194;-78
2021/11/18 08:47:48;;;;;;;12.68;3.83;;;7.20;99.90;;;;;;5074618;28;20254;-79
2021/11/18 08:50:19;;;;;;;6.15;4.60;;;7.30;99.90;;;;;;5074289;28;20289;-77
2021/11/18 08:52:47;;;;;;;11.50;4.97;;;7.60;99.90;;;;;;5073193;28;20210;-79
2021/11/18 08:55:18;;;;;;;25.42;6.10;;;7.70;99.90;;;;;;5074351;28;20194;-78
2021/11/18 08:57:47;;;;;;;6.93;4.63;;;7.90;99.90;;;;;;5075190;28;20201;-78
2021/11/18 09:00:19;;;;;;;16.38;3.85;;;8.20;99.90;;;;;;5074371;28;20227;-78
2021/11/18 09:02:47;;;;;;;11.63;1.52;;;8.50;99.90;;;;;;5074586;28;20215;-78
2021/11/18 09:05:14;;;;;;;7.28;5.28;;;8.90;99.90;;;;;;5074403;28;20210;-78
2021/11/18 09:07:41;;;;;;;1.13;0.80;;;9.30;99.90;;;;;;5074639;28;20191;-78
2021/11/18 09:10:11;;;;;;;6.75;1.48;;;9.10;99.90;;;;;;5073666;28;20208;-78
2021/11/18 09:12:39;;;;;;;3.63;3.25;;;9.00;99.90;;;;;;5074056;28;20290;-79
2021/11/18 09:15:08;;;;;;;5.90;5.40;;;9.10;99.90;;;;;;5074318;28;20207;-78
2021/11/18 09:17:35;;;;;;;7.97;4.05;;;9.00;99.90;;;;;;5073840;28;20201;-79
2021/11/18 09:20:02;;;;;;;5.30;4.20;;;9.00;99.90;;;;;;5073598;28;20712;-79
2021/11/18 09:22:29;;;;;;;9.48;5.03;;;9.10;99.90;;;;;;5073819;28;20200;-78
2021/11/18 09:24:58;;;;;;;7.65;4.72;;;9.20;99.90;;;;;;5074169;28;20203;-78
2021/11/18 09:27:28;;;;;;;2.42;2.00;;;9.10;99.90;;;;;;5073950;28;20195;-77
2021/11/18 09:29:56;;;;;;;2.20;2.03;;;8.70;99.90;;;;;;5074399;28;20213;-78
2021/11/18 09:32:29;;;;;;;1.77;1.63;;;8.60;99.90;;;;;;5074734;28;20254;-78
2021/11/18 09:34:55;;;;;;;2.20;2.10;;;8.60;99.90;;;;;;5075860;28;20190;-79
2021/11/18 09:37:22;;;;;;;4.43;2.78;;;8.60;99.90;;;;;;5077456;28;20197;-78
2021/11/18 09:39:50;;;;;;;13.18;3.85;;;8.80;99.90;;;;;;5075396;28;20216;-78
2021/11/18 09:42:18;;;;;;;3.03;2.83;;;8.90;99.90;;;;;;5075168;28;20209;-78
2021/11/18 09:44:54;;;;;;;5.22;1.80;;;9.10;99.90;;;;;;5077941;28;20196;-77
2021/11/18 09:48:06;;;;;;;1.48;1.38;;;9.20;99.90;;;;;;5073630;28;20523;-78
2021/11/18 09:50:43;;;;;;;6.20;4.18;;;9.30;99.90;;;;;;5073097;28;20224;-78
2021/11/18 09:53:28;;;;;;;2.33;2.22;;;9.40;99.90;;;;;;5074166;28;20632;-78
2021/11/18 09:56:05;;;;;;;3.50;0.85;;;9.40;99.90;;;;;;5073939;28;20196;-78
2021/11/18 09:58:48;;;;;;;4.80;2.90;;;9.50;99.90;;;;;;5074061;28;20196;-78
2021/11/18 10:01:37;;;;;;;5.43;2.72;;;9.60;99.90;;;;;;5073868;28;20217;-79
2021/11/18 10:04:26;;;;;;;2.85;2.70;;;9.40;99.90;;;;;;5059598;28;20194;-78
2021/11/18 10:06:56;;;;;;;10.15;2.45;;;9.50;99.90;;;;;;5070993;28;20199;-78
2021/11/18 10:09:32;;;;;;;5.72;3.10;;;9.60;99.90;;;;;;5073865;28;20200;-77
2021/11/18 10:12:06;;;;;;;2.47;2.38;;;9.30;99.90;;;;;;5074612;28;20661;-77
2021/11/18 10:14:53;;;;;;;5.20;1.98;;;9.40;99.90;;;;;;5074815;28;20188;-78
2021/11/18 10:17:26;;;;;;;9.30;2.38;;;9.50;99.90;;;;;;5081575;28;20227;-78
2021/11/18 10:19:58;;;;;;;38.92;5.60;;;9.70;99.90;;;;;;5080604;28;20302;-78
2021/11/18 10:22:28;;;;;;;5.00;4.18;;;9.90;99.90;;;;;;5081136;28;20661;-78
2021/11/18 10:24:58;;;;;;;2.70;2.45;;;10.00;99.90;;;;;;5079778;28;20197;-78
2021/11/18 10:27:27;;;;;;;5.07;3.67;;;10.00;99.90;;;;;;5080184;28;20200;-75
2021/11/18 10:29:59;;;;;;;2.42;2.13;;;10.10;99.90;;;;;;5078522;28;20224;-77
2021/11/18 10:32:30;;;;;;;11.85;5.30;;;10.30;99.90;;;;;;5080551;28;20182;-78
2021/11/18 10:35:02;;;;;;;6.07;1.02;;;10.30;99.90;;;;;;5075133;28;20647;-78
2021/11/18 10:37:32;;;;;;;7.50;2.38;;;10.60;99.90;;;;;;5072319;28;20204;-77
2021/11/18 10:40:07;;;;;;;1.00;1.00;;;10.90;99.90;;;;;;5071746;28;20633;-78
2021/11/18 10:42:37;;;;;;;3.13;2.22;;;11.20;99.90;;;;;;5072592;28;20209;-77
2021/11/18 10:45:08;;;;;;;15.10;3.47;;;11.60;99.90;;;;;;5071678;28;20205;-78
2021/11/18 10:47:42;;;;;;;2.88;2.67;;;11.40;99.90;;;;;;5072240;28;20202;-77
2021/11/18 10:50:23;;;;;;;5.57;2.58;;;11.10;99.90;;;;;;5071022;28;20597;-77
2021/11/18 10:53:07;;;;;;;5.97;3.45;;;10.80;99.90;;;;;;5072188;28;20187;-77
2021/11/18 10:55:36;;;;;;;3.30;2.72;;;10.60;99.90;;;;;;5071342;28;20201;-77
2021/11/18 10:58:07;;;;;;;4.47;3.70;;;10.70;99.90;;;;;;5072039;28;20197;-77
2021/11/18 11:00:46;;;;;;;2.13;1.92;;;10.90;99.90;;;;;;5071444;28;20314;-78
2021/11/18 11:03:23;;;;;;;11.27;3.33;;;10.90;99.90;;;;;;5078023;28;20205;-78
2021/11/18 11:06:08;;;;;;;36.03;2.35;;;10.60;99.90;;;;;;5078921;28;20186;-77
2021/11/18 11:08:35;;;;;;;2.65;2.20;;;10.50;99.90;;;;;;5077839;28;20666;-77
2021/11/18 11:11:06;;;;;;;1.90;1.45;;;10.50;99.90;;;;;;5073143;28;20213;-77
2021/11/18 11:14:00;;;;;;;1.20;0.93;;;10.40;99.90;;;;;;5073107;28;20198;-77
2021/11/18 11:16:47;;;;;;;6.82;2.42;;;10.50;99.90;;;;;;5073067;28;20566;-77
2021/11/18 11:19:31;;;;;;;2.75;1.63;;;10.50;99.90;;;;;;5076550;28;20634;-77
2021/11/18 11:22:05;;;;;;;16.05;3.22;;;10.50;99.90;;;;;;5076635;28;20220;-78
2021/11/18 11:24:56;;;;;;;4.97;2.40;;;10.50;99.90;;;;;;5076850;28;20205;-78
2021/11/18 11:27:54;;;;;;;4.20;2.60;;;10.80;99.90;;;;;;5076310;28;20208;-78
2021/11/18 11:30:26;;;;;;;5.55;4.07;;;11.10;99.90;;;;;;5076386;28;20217;-78
2021/11/18 11:32:56;;;;;;;8.90;3.33;;;11.20;99.90;;;;;;5076317;28;20212;-78
2021/11/18 11:35:31;;;;;;;2.10;1.00;;;11.20;99.90;;;;;;5076501;28;20189;-77
2021/11/18 11:38:30;;;;;;;4.40;2.25;;;11.50;99.90;;;;;;5075632;28;20197;-78
2021/11/18 11:41:25;;;;;;;7.30;1.42;;;11.70;99.90;;;;;;5074413;28;20216;-78
2021/11/18 11:43:56;;;;;;;5.45;3.05;;;11.70;99.90;;;;;;5074468;28;20206;-77
2021/11/18 11:46:31;;;;;;;5.72;3.03;;;11.50;99.90;;;;;;5076086;28;20182;-78
2021/11/18 11:49:08;;;;;;;8.13;2.53;;;11.40;99.90;;;;;;5076053;28;20180;-76
2021/11/18 11:51:59;;;;;;;1.30;1.20;;;11.30;99.90;;;;;;5077682;28;20221;-79
2021/11/18 11:55:01;;;;;;;4.72;2.45;;;11.40;99.90;;;;;;5054547;28;20200;-77
2021/11/18 11:57:36;;;;;;;2.35;2.10;;;11.20;99.90;;;;;;5075327;28;20204;-77
2021/11/18 12:00:12;;;;;;;1.45;1.30;;;11.20;99.90;;;;;;5075788;28;20563;-78
2021/11/18 12:02:44;;;;;;;6.90;4.38;;;11.20;99.90;;;;;;5075381;28;20235;-77
2021/11/18 12:05:15;;;;;;;6.82;1.52;;;11.30;99.90;;;;;;5080866;28;20189;-78
2021/11/18 12:07:48;;;;;;;3.20;1.95;;;11.30;99.90;;;;;;5080254;28;20201;-78
2021/11/18 12:10:26;;;;;;;16.77;4.00;;;11.20;99.90;;;;;;5079663;28;20252;-78
2021/11/18 12:13:02;;;;;;;1.73;1.30;;;11.00;99.90;;;;;;5078501;28;20633;-79
2021/11/18 12:15:30;;;;;;;3.40;1.63;;;10.90;99.90;;;;;;5075362;28;20185;-77
2021/11/18 12:18:01;;;;;;;4.32;0.98;;;10.90;99.90;;;;;;5074960;28;20202;-78
2021/11/18 12:20:31;;;;;;;2.20;2.00;;;11.00;99.90;;;;;;5074119;28;20229;-78
2021/11/18 12:23:00;;;;;;;4.63;2.65;;;11.00;99.90;;;;;;5074898;28;20197;-78
2021/11/18 12:25:35;;;;;;;0.70;0.50;;;11.00;99.90;;;;;;5075383;28;20259;-77
2021/11/18 12:28:07;;;;;;;8.55;4.18;;;11.20;99.90;;;;;;5075791;28;20181;-78
2021/11/18 12:31:09;;;;;;;0.50;0.40;;;11.40;99.90;;;;;;5074234;28;20216;-78
2021/11/18 12:33:45;;;;;;;3.72;1.55;;;11.50;99.90;;;;;;5074564;28;20194;-78
2021/11/18 12:36:16;;;;;;;1.52;1.42;;;11.60;99.90;;;;;;5074576;28;20204;-77
2021/11/18 12:38:45;;;;;;;1.60;1.50;;;11.50;99.90;;;;;;5060071;28;20229;-78
2021/11/18 12:41:30;;;;;;;3.22;1.70;;;11.30;99.90;;;;;;5055797;28;20587;-78
2021/11/18 12:44:20;;;;;;;3.80;1.17;;;11.40;99.90;;;;;;5074302;28;20228;-78
2021/11/18 12:47:00;;;;;;;1.13;1.03;;;11.40;99.90;;;;;;5074255;28;20440;-78
2021/11/18 12:49:55;;;;;;;0.87;0.80;;;11.50;99.90;;;;;;5073000;28;20440;-78
2021/11/18 12:52:24;;;;;;;0.70;0.70;;;11.60;99.90;;;;;;5073935;28;20447;-77
2021/11/18 12:55:24;;;;;;;1.00;0.98;;;11.80;99.90;;;;;;5067707;28;20190;-78
2021/11/18 12:57:55;;;;;;;1.40;1.30;;;12.00;99.90;;;;;;5065023;28;20189;-78
2021/11/18 13:00:43;;;;;;;0.60;0.50;;;12.10;99.90;;;;;;5073000;28;20486;-77
2021/11/18 13:03:13;;;;;;;0.80;0.80;;;12.20;99.90;;;;;;5073670;28;20198;-77
2021/11/18 13:05:53;;;;;;;7.93;1.63;;;12.20;99.90;;;;;;5073672;28;20887;-78
2021/11/18 13:08:54;;;;;;;0.50;0.40;;;12.20;99.90;;;;;;5073502;28;20444;-77
2021/11/18 13:11:56;;;;;;;0.50;0.40;;;12.40;99.90;;;;;;5076735;28;20448;-78
2021/11/18 13:14:48;;;;;;;1.43;1.33;;;12.40;99.90;;;;;;5073206;28;20467;-79